createdAt,value
2019-02-19T00:00:40.890Z,100792.73
2019-02-19T00:03:09.456Z,100796.30
2019-02-19T00:05:37.776Z,100798.59
2019-02-19T00:08:06.077Z,100792.64
2019-02-19T00:10:34.380Z,100796.73
2019-02-19T00:13:02.674Z,100789.46
2019-02-19T00:15:31.001Z,100799.84
2019-02-19T00:17:59.283Z,100791.97
2019-02-19T00:20:27.623Z,100789.83
2019-02-19T00:22:55.945Z,100789.95
2019-02-19T00:25:24.275Z,100792.23
2019-02-19T00:27:52.873Z,100790.71
2019-02-19T00:30:21.158Z,100792.02
2019-02-19T00:32:49.472Z,100789.18
2019-02-19T00:35:17.793Z,100784.91
2019-02-19T00:37:46.185Z,100781.58
2019-02-19T00:40:14.759Z,100781.23
2019-02-19T00:42:43.074Z,100779.25
2019-02-19T00:45:16.606Z,100783.19
2019-02-19T00:47:41.734Z,100781.88
2019-02-19T00:50:10.199Z,100784.96
2019-02-19T00:52:38.502Z,100787.03
2019-02-19T00:55:07.231Z,100787.45
2019-02-19T00:57:35.521Z,100784.12
2019-02-19T01:00:05.276Z,100786.84
2019-02-19T01:02:33.581Z,100793.33
2019-02-19T01:05:01.904Z,100790.42
2019-02-19T01:07:30.254Z,100798.38
2019-02-19T01:09:58.569Z,100793.00
2019-02-19T01:12:26.934Z,100791.53
2019-02-19T01:14:55.250Z,100795.75
2019-02-19T01:17:23.534Z,100794.52
2019-02-19T01:19:51.832Z,100794.02
2019-02-19T01:22:20.188Z,100794.83
2019-02-19T01:24:48.506Z,100800.49
2019-02-19T01:27:16.805Z,100801.36
2019-02-19T01:29:45.129Z,100798.67
2019-02-19T01:32:13.455Z,100792.16
2019-02-19T01:34:41.830Z,100793.17
2019-02-19T01:37:10.114Z,100797.48
2019-02-19T01:39:38.434Z,100793.33
2019-02-19T01:42:06.730Z,100795.69
2019-02-19T01:44:35.074Z,100795.95
2019-02-19T01:47:03.396Z,100801.05
2019-02-19T01:49:31.686Z,100794.70
2019-02-19T01:52:00.012Z,100796.58
2019-02-19T01:54:28.303Z,100796.53
2019-02-19T01:56:56.632Z,100792.55
2019-02-19T01:59:24.923Z,100794.42
2019-02-19T02:01:53.251Z,100796.06
2019-02-19T02:04:21.535Z,100790.55
2019-02-19T02:06:49.828Z,100791.72
2019-02-19T02:09:18.140Z,100789.45
2019-02-19T02:11:46.423Z,100796.02
2019-02-19T02:14:14.741Z,100796.36
2019-02-19T02:16:43.031Z,100797.52
2019-02-19T02:19:11.357Z,100791.11
2019-02-19T02:21:39.639Z,100796.58
2019-02-19T02:24:07.962Z,100792.55
2019-02-19T02:26:36.262Z,100798.31
2019-02-19T02:29:04.579Z,100798.59
2019-02-19T02:31:32.879Z,100791.14
2019-02-19T02:34:01.188Z,100797.28
2019-02-19T02:36:29.507Z,100790.44
2019-02-19T02:38:57.800Z,100792.09
2019-02-19T02:41:26.176Z,100798.66
2019-02-19T02:43:54.546Z,100792.91
2019-02-19T02:46:22.855Z,100795.42
2019-02-19T02:48:51.140Z,100799.85
2019-02-19T02:51:19.457Z,100803.64
2019-02-19T02:53:47.752Z,100802.81
2019-02-19T02:56:16.080Z,100800.19
2019-02-19T02:58:44.416Z,100797.90
2019-02-19T03:01:12.713Z,100809.59
2019-02-19T03:03:41.337Z,100813.54
2019-02-19T03:06:14.033Z,100814.86
2019-02-19T03:08:42.689Z,100816.29
2019-02-19T03:11:10.992Z,100815.80
2019-02-19T03:13:39.292Z,100813.72
2019-02-19T03:16:07.615Z,100813.88
2019-02-19T03:18:35.915Z,100816.35
2019-02-19T03:21:04.238Z,100809.11
2019-02-19T03:23:32.541Z,100820.78
2019-02-19T03:26:00.850Z,100812.98
2019-02-19T03:28:29.147Z,100812.06
2019-02-19T03:30:57.466Z,100815.52
2019-02-19T03:33:26.071Z,100814.91
2019-02-19T03:35:54.412Z,100820.98
2019-02-19T03:38:22.744Z,100830.67
2019-02-19T03:40:51.021Z,100831.44
2019-02-19T03:43:19.335Z,100828.47
2019-02-19T03:45:47.627Z,100837.02
2019-02-19T03:48:15.943Z,100844.79
2019-02-19T03:50:44.251Z,100848.73
2019-02-19T03:53:12.591Z,100847.75
2019-02-19T03:55:40.890Z,100844.57
2019-02-19T03:58:09.253Z,100853.81
2019-02-19T04:00:37.673Z,100844.22
2019-02-19T04:03:06.315Z,100854.99
2019-02-19T04:05:34.626Z,100854.77
2019-02-19T04:08:02.911Z,100857.89
2019-02-19T04:10:31.220Z,100861.13
2019-02-19T04:12:59.510Z,100856.13
2019-02-19T04:15:27.820Z,100860.83
2019-02-19T04:17:56.108Z,100855.02
2019-02-19T04:20:24.464Z,100865.19
2019-02-19T04:22:52.748Z,100863.53
2019-02-19T04:25:21.071Z,100866.69
2019-02-19T04:27:49.370Z,100866.47
2019-02-19T04:30:17.958Z,100877.37
2019-02-19T04:32:46.264Z,100863.32
2019-02-19T04:35:14.570Z,100868.23
2019-02-19T04:37:42.905Z,100878.24
2019-02-19T04:40:11.199Z,100871.69
2019-02-19T04:42:39.516Z,100870.86
2019-02-19T04:45:08.253Z,100866.95
2019-02-19T04:47:36.553Z,100865.94
2019-02-19T04:50:06.815Z,100867.70
2019-02-19T04:52:35.132Z,100871.64
2019-02-19T04:55:03.535Z,100873.02
2019-02-19T04:57:31.842Z,100883.52
2019-02-19T05:00:01.072Z,100876.10
2019-02-19T05:02:29.392Z,100883.03
2019-02-19T05:04:57.697Z,100899.95
2019-02-19T05:07:26.011Z,100887.31
2019-02-19T05:09:54.317Z,100886.48
2019-02-19T05:12:22.772Z,100884.34
2019-02-19T05:14:51.086Z,100880.41
2019-02-19T05:17:19.391Z,100885.88
2019-02-19T05:19:47.707Z,100893.27
2019-02-19T05:22:16.012Z,100889.56
2019-02-19T05:24:44.370Z,100891.70
2019-02-19T05:27:12.687Z,100895.48
2019-02-19T05:29:40.976Z,100904.30
2019-02-19T05:32:09.282Z,100898.67
2019-02-19T05:34:37.694Z,100894.25
2019-02-19T05:37:06.015Z,100888.41
2019-02-19T05:39:34.610Z,100897.11
2019-02-19T05:42:02.914Z,100904.49
2019-02-19T05:44:31.208Z,100909.41
2019-02-19T05:46:59.546Z,100907.12
2019-02-19T05:49:27.844Z,100895.38
2019-02-19T05:51:56.166Z,100895.00
2019-02-19T05:54:24.464Z,100898.75
2019-02-19T05:56:52.789Z,100902.05
2019-02-19T05:59:21.333Z,100897.02
2019-02-19T06:01:50.013Z,100901.38
2019-02-19T06:04:18.321Z,100895.19
2019-02-19T06:06:46.616Z,100900.92
2019-02-19T06:09:14.923Z,100900.22
2019-02-19T06:11:43.531Z,100895.45
2019-02-19T06:14:11.839Z,100897.85
2019-02-19T06:16:40.157Z,100905.50
2019-02-19T06:19:08.475Z,100908.53
2019-02-19T06:21:36.788Z,100910.67
2019-02-19T06:24:05.176Z,100915.20
2019-02-19T06:26:33.487Z,100915.84
2019-02-19T06:29:01.786Z,100923.34
2019-02-19T06:31:30.102Z,100917.38
2019-02-19T06:33:58.389Z,100919.38
2019-02-19T06:36:26.774Z,100923.68
2019-02-19T06:38:55.077Z,100926.98
2019-02-19T06:41:23.381Z,100929.88
2019-02-19T06:43:51.765Z,100930.12
2019-02-19T06:46:20.107Z,100927.98
2019-02-19T06:48:48.420Z,100933.23
2019-02-19T06:51:16.810Z,100942.08
2019-02-19T06:53:45.173Z,100944.93
2019-02-19T06:56:13.503Z,100950.18
2019-02-19T06:58:42.117Z,100951.49
2019-02-19T07:01:10.533Z,100967.58
2019-02-19T07:03:40.479Z,100974.28
2019-02-19T07:06:08.787Z,100982.50
2019-02-19T07:08:37.094Z,100983.58
2019-02-19T07:11:05.468Z,100980.95
2019-02-19T07:13:34.126Z,100985.61
2019-02-19T07:16:02.443Z,100990.26
2019-02-19T07:18:30.765Z,100983.45
2019-02-19T07:20:59.066Z,100994.55
2019-02-19T07:23:27.376Z,100994.48
2019-02-19T07:25:56.031Z,101001.62
2019-02-19T07:28:24.332Z,101007.09
2019-02-19T07:30:52.687Z,101011.75
2019-02-19T07:33:20.985Z,101010.44
2019-02-19T07:35:49.279Z,101007.33
2019-02-19T07:38:17.911Z,101017.59
2019-02-19T07:40:46.242Z,101019.63
2019-02-19T07:43:14.541Z,101017.94
2019-02-19T07:45:43.015Z,101026.45
2019-02-19T07:48:11.625Z,101025.47
2019-02-19T07:50:39.932Z,101029.89
2019-02-19T07:53:08.597Z,101032.38
2019-02-19T07:55:36.908Z,101033.69
2019-02-19T07:58:05.238Z,101035.31
2019-02-19T08:00:33.550Z,101036.01
2019-02-19T08:03:01.858Z,101045.39
2019-02-19T08:05:30.583Z,101044.71
2019-02-19T08:07:58.896Z,101047.42
2019-02-19T08:10:27.193Z,101050.27
2019-02-19T08:12:55.518Z,101052.45
2019-02-19T08:15:23.817Z,101060.47
2019-02-19T08:17:52.095Z,101060.20
2019-02-19T08:20:20.471Z,101061.72
2019-02-19T08:22:48.776Z,101069.34
2019-02-19T08:25:17.096Z,101074.00
2019-02-19T08:27:45.700Z,101070.57
2019-02-19T08:30:14.052Z,101071.22
2019-02-19T08:32:42.374Z,101077.22
2019-02-19T08:35:11.032Z,101079.95
2019-02-19T08:37:39.622Z,101072.22
2019-02-19T08:40:09.479Z,101076.89
2019-02-19T08:42:37.793Z,101077.89
2019-02-19T08:45:08.039Z,101078.47
2019-02-19T08:47:42.306Z,101079.15
2019-02-19T08:50:07.824Z,101082.00
2019-02-19T08:52:36.446Z,101081.02
2019-02-19T08:55:06.147Z,101074.34
2019-02-19T08:57:34.451Z,101083.12
2019-02-19T09:00:02.754Z,101082.36
2019-02-19T09:02:31.090Z,101071.69
2019-02-19T09:04:59.399Z,101072.22
2019-02-19T09:07:27.684Z,101085.44
2019-02-19T09:09:56.013Z,101074.19
2019-02-19T09:12:24.353Z,101076.62
2019-02-19T09:14:52.978Z,101081.23
2019-02-19T09:17:21.275Z,101084.97
2019-02-19T09:19:49.597Z,101085.20
2019-02-19T09:22:18.211Z,101079.16
2019-02-19T09:24:46.517Z,101080.63
2019-02-19T09:27:14.824Z,101087.98
2019-02-19T09:29:43.142Z,101089.03
2019-02-19T09:32:12.037Z,101091.31
2019-02-19T09:34:40.355Z,101091.96
2019-02-19T09:37:08.648Z,101087.38
2019-02-19T09:39:37.265Z,101090.86
2019-02-19T09:42:05.574Z,101084.47
2019-02-19T09:44:33.916Z,101083.87
2019-02-19T09:47:02.217Z,101078.19
2019-02-19T09:49:30.529Z,101084.02
2019-02-19T09:51:59.158Z,101077.89
2019-02-19T09:54:27.462Z,101082.03
2019-02-19T09:56:55.779Z,101083.73
2019-02-19T09:59:24.082Z,101090.09
2019-02-19T10:01:52.390Z,101095.38
2019-02-19T10:04:20.802Z,101090.70
2019-02-19T10:06:49.128Z,101084.98
2019-02-19T10:09:17.426Z,101099.15
2019-02-19T10:11:45.738Z,101103.45
2019-02-19T10:14:14.396Z,101105.05
2019-02-19T10:16:43.061Z,101101.49
2019-02-19T10:19:11.532Z,101110.43
2019-02-19T10:21:40.124Z,101101.50
2019-02-19T10:24:08.454Z,101103.95
2019-02-19T10:26:37.074Z,101105.42
2019-02-19T10:29:05.659Z,101105.27
2019-02-19T10:31:33.972Z,101103.12
2019-02-19T10:34:02.630Z,101098.45
2019-02-19T10:36:31.214Z,101113.05
2019-02-19T10:38:59.536Z,101107.45
2019-02-19T10:41:27.898Z,101117.53
2019-02-19T10:43:56.296Z,101115.03
2019-02-19T10:46:24.605Z,101110.87
2019-02-19T10:48:52.913Z,101109.73
2019-02-19T10:51:21.226Z,101113.89
2019-02-19T10:53:49.536Z,101111.59
2019-02-19T10:56:17.858Z,101115.05
2019-02-19T10:58:46.144Z,101109.23
2019-02-19T11:01:14.809Z,101109.50
2019-02-19T11:03:43.102Z,101107.66
2019-02-19T11:06:11.775Z,101110.11
2019-02-19T11:08:40.070Z,101122.88
2019-02-19T11:11:08.630Z,101113.82
2019-02-19T11:13:37.314Z,101116.11
2019-02-19T11:16:05.648Z,101113.94
2019-02-19T11:18:33.975Z,101113.03
2019-02-19T11:21:02.311Z,101108.09
2019-02-19T11:23:30.641Z,101111.86
2019-02-19T11:25:58.917Z,101110.78
2019-02-19T11:28:27.230Z,101102.88
2019-02-19T11:30:55.548Z,101118.05
2019-02-19T11:33:23.954Z,101111.98
2019-02-19T11:35:52.612Z,101119.48
2019-02-19T11:38:21.001Z,101111.57
2019-02-19T11:40:49.321Z,101111.91
2019-02-19T11:43:17.613Z,101114.24
2019-02-19T11:45:45.945Z,101114.56
2019-02-19T11:48:14.275Z,101109.78
2019-02-19T11:50:42.588Z,101111.72
2019-02-19T11:53:10.892Z,101111.64
2019-02-19T11:55:39.526Z,101108.41
2019-02-19T11:58:07.892Z,101110.11
2019-02-19T12:00:41.229Z,101114.27
2019-02-19T12:03:09.555Z,101120.56
2019-02-19T12:05:37.887Z,101111.36
2019-02-19T12:08:06.227Z,101109.06
2019-02-19T12:10:34.817Z,101109.97
2019-02-19T12:13:03.123Z,101105.13
2019-02-19T12:15:35.206Z,101102.49
2019-02-19T12:18:01.800Z,101110.06
2019-02-19T12:20:30.121Z,101108.72
2019-02-19T12:22:58.425Z,101103.78
2019-02-19T12:25:27.043Z,101115.93
2019-02-19T12:27:55.347Z,101113.32
2019-02-19T12:30:23.639Z,101109.36
2019-02-19T12:32:51.952Z,101109.41
2019-02-19T12:35:20.551Z,101113.37
2019-02-19T12:37:48.907Z,101112.09
2019-02-19T12:40:17.218Z,101114.05
2019-02-19T12:42:45.554Z,101107.20
2019-02-19T12:45:15.129Z,101111.81
2019-02-19T12:47:43.429Z,101102.17
2019-02-19T12:50:16.745Z,101109.80
2019-02-19T12:52:45.060Z,101111.06
2019-02-19T12:55:13.618Z,101105.30
2019-02-19T12:57:42.337Z,101100.23
2019-02-19T13:00:13.463Z,101092.98
2019-02-19T13:02:41.784Z,101097.35
2019-02-19T13:05:11.466Z,101088.91
2019-02-19T13:07:39.783Z,101089.83
2019-02-19T13:10:10.050Z,101092.55
2019-02-19T13:12:38.377Z,101090.94
2019-02-19T13:15:21.277Z,101099.77
2019-02-19T13:17:49.595Z,101104.87
2019-02-19T13:20:18.230Z,101096.21
2019-02-19T13:22:46.886Z,101095.75
2019-02-19T13:25:15.192Z,101095.20
2019-02-19T13:27:43.495Z,101089.82
2019-02-19T13:30:19.847Z,101098.16
2019-02-19T13:32:48.491Z,101095.09
2019-02-19T13:35:16.781Z,101102.02
2019-02-19T13:37:45.067Z,101099.73
2019-02-19T13:40:16.001Z,101102.09
2019-02-19T13:42:44.304Z,101103.66
2019-02-19T13:45:14.266Z,101106.72
2019-02-19T13:47:42.808Z,101109.96
2019-02-19T13:50:22.769Z,101114.77
2019-02-19T13:53:09.117Z,101112.47
2019-02-19T13:55:42.516Z,101112.44
2019-02-19T13:58:10.856Z,101110.74
2019-02-19T14:00:40.792Z,101115.23
2019-02-19T14:03:09.162Z,101112.44
2019-02-19T14:05:37.455Z,101111.03
2019-02-19T14:08:14.008Z,101108.11
2019-02-19T14:10:36.347Z,101106.79
2019-02-19T14:13:05.043Z,101106.25
2019-02-19T14:15:43.855Z,101112.69
2019-02-19T14:18:13.818Z,101106.55
2019-02-19T14:20:44.121Z,101116.44
2019-02-19T14:23:16.774Z,101118.05
2019-02-19T14:25:52.950Z,101114.98
2019-02-19T14:28:32.276Z,101119.89
2019-02-19T14:31:04.631Z,101127.68
2019-02-19T14:33:37.487Z,101119.02
2019-02-19T14:36:07.457Z,101120.50
2019-02-19T14:38:37.414Z,101128.83
2019-02-19T14:41:22.446Z,101130.87
2019-02-19T14:44:09.036Z,101127.69
2019-02-19T14:46:38.979Z,101127.95
2019-02-19T14:49:36.620Z,101130.64
2019-02-19T14:52:14.977Z,101130.51
2019-02-19T14:55:01.220Z,101118.07
2019-02-19T14:57:31.167Z,101131.13
2019-02-19T15:00:10.094Z,101130.51
2019-02-19T15:02:45.808Z,101130.64
2019-02-19T15:05:16.047Z,101127.22
2019-02-19T15:07:46.093Z,101125.45
2019-02-19T15:10:32.545Z,101117.50
2019-02-19T15:13:05.176Z,101122.39
2019-02-19T15:15:38.077Z,101124.07
2019-02-19T15:18:20.008Z,101123.17
2019-02-19T15:20:49.937Z,101121.28
2019-02-19T15:23:34.651Z,101123.06
2019-02-19T15:26:04.578Z,101127.71
2019-02-19T15:28:46.815Z,101125.66
2019-02-19T15:31:25.764Z,101129.98
2019-02-19T15:33:55.704Z,101120.27
2019-02-19T15:36:31.600Z,101117.86
2019-02-19T15:39:01.556Z,101125.98
2019-02-19T15:41:33.892Z,101133.02
2019-02-19T15:44:03.821Z,101132.63
2019-02-19T15:46:33.787Z,101136.50
2019-02-19T15:49:06.435Z,101130.41
2019-02-19T15:51:42.219Z,101129.73
2019-02-19T15:54:12.170Z,101133.48
2019-02-19T15:57:00.225Z,101138.54
2019-02-19T15:59:32.922Z,101137.45
2019-02-19T16:02:11.912Z,101139.75
2019-02-19T16:04:57.806Z,101144.59
2019-02-19T16:07:28.064Z,101141.13
2019-02-19T16:09:58.202Z,101142.93
2019-02-19T16:12:28.491Z,101142.65
2019-02-19T16:15:04.404Z,101145.56
2019-02-19T16:17:34.359Z,101140.58
2019-02-19T16:20:13.313Z,101140.80
2019-02-19T16:22:43.254Z,101146.90
2019-02-19T16:25:29.614Z,101148.83
2019-02-19T16:28:14.807Z,101148.07
2019-02-19T16:30:47.751Z,101148.94
2019-02-19T16:33:26.758Z,101153.56
2019-02-19T16:36:08.734Z,101146.92
2019-02-19T16:38:38.998Z,101156.63
2019-02-19T16:41:17.873Z,101152.95
2019-02-19T16:43:47.986Z,101155.09
2019-02-19T16:46:33.022Z,101156.23
2019-02-19T16:49:12.186Z,101162.32
2019-02-19T16:51:48.307Z,101159.81
2019-02-19T16:54:21.138Z,101152.18
2019-02-19T16:57:00.179Z,101158.09
2019-02-19T16:59:30.129Z,101159.69
2019-02-19T17:02:08.988Z,101156.71
2019-02-19T17:04:39.282Z,101167.36
2019-02-19T17:07:09.215Z,101164.78
2019-02-19T17:09:39.152Z,101167.50
2019-02-19T17:12:12.039Z,101172.03
2019-02-19T17:14:47.738Z,101168.99
2019-02-19T17:17:17.703Z,101175.84
2019-02-19T17:19:56.690Z,101171.67
2019-02-19T17:22:38.802Z,101178.67
2019-02-19T17:25:18.670Z,101186.31
2019-02-19T17:28:05.098Z,101188.50
2019-02-19T17:30:35.030Z,101188.92
2019-02-19T17:33:13.999Z,101191.59
2019-02-19T17:36:00.592Z,101190.27
2019-02-19T17:38:30.533Z,101190.80
2019-02-19T17:41:09.345Z,101198.49
2019-02-19T17:43:41.984Z,101205.96
2019-02-19T17:46:20.965Z,101208.13
2019-02-19T17:49:07.465Z,101209.59
2019-02-19T17:51:37.429Z,101211.51
2019-02-19T17:54:22.383Z,101211.16
2019-02-19T17:56:58.044Z,101209.14
2019-02-19T17:59:30.706Z,101206.67
2019-02-19T18:02:16.100Z,101209.14
2019-02-19T18:04:58.327Z,101220.02
2019-02-19T18:07:28.519Z,101219.33
2019-02-19T18:10:16.819Z,101230.44
2019-02-19T18:12:55.474Z,101232.98
2019-02-19T18:15:25.419Z,101236.69
2019-02-19T18:17:58.369Z,101239.45
2019-02-19T18:20:26.651Z,101236.59
2019-02-19T18:22:54.962Z,101243.41
2019-02-19T18:25:23.261Z,101241.66
2019-02-19T18:27:51.823Z,101249.31
2019-02-19T18:30:20.416Z,101248.73
2019-02-19T18:32:48.714Z,101241.10
2019-02-19T18:35:17.039Z,101245.77
2019-02-19T18:37:45.337Z,101240.04
2019-02-19T18:40:13.952Z,101250.20
2019-02-19T18:42:42.512Z,101252.94
2019-02-19T18:45:11.097Z,101249.73
2019-02-19T18:47:39.679Z,101252.98
2019-02-19T18:50:09.388Z,101252.74
2019-02-19T18:52:37.679Z,101256.78
2019-02-19T18:55:07.543Z,101250.47
2019-02-19T18:57:35.889Z,101252.41
2019-02-19T19:00:04.938Z,101257.31
2019-02-19T19:02:33.247Z,101255.28
2019-02-19T19:05:01.660Z,101260.64
2019-02-19T19:07:29.961Z,101256.48
2019-02-19T19:09:58.266Z,101269.03
2019-02-19T19:12:26.570Z,101266.41
2019-02-19T19:14:54.879Z,101270.84
2019-02-19T19:17:23.189Z,101265.23
2019-02-19T19:19:51.484Z,101264.75
2019-02-19T19:22:19.804Z,101265.13
2019-02-19T19:24:48.126Z,101272.04
2019-02-19T19:27:16.402Z,101265.59
2019-02-19T19:29:44.691Z,101267.76
2019-02-19T19:32:13.022Z,101263.92
2019-02-19T19:34:41.332Z,101265.94
2019-02-19T19:37:09.640Z,101267.86
2019-02-19T19:39:37.952Z,101273.56
2019-02-19T19:42:06.297Z,101272.73
2019-02-19T19:44:34.618Z,101268.80
2019-02-19T19:47:03.180Z,101270.11
2019-02-19T19:49:31.506Z,101275.36
2019-02-19T19:51:59.808Z,101279.91
2019-02-19T19:54:28.131Z,101283.95
2019-02-19T19:56:56.464Z,101280.26
2019-02-19T19:59:24.847Z,101279.67
2019-02-19T20:01:53.241Z,101278.97
2019-02-19T20:04:21.544Z,101288.61
2019-02-19T20:06:49.914Z,101285.39
2019-02-19T20:09:18.184Z,101281.58
2019-02-19T20:11:46.494Z,101284.81
2019-02-19T20:14:14.801Z,101284.70
2019-02-19T20:16:43.089Z,101276.94
2019-02-19T20:19:11.399Z,101284.59
2019-02-19T20:21:39.711Z,101283.03
2019-02-19T20:24:08.033Z,101277.06
2019-02-19T20:26:36.331Z,101280.52
2019-02-19T20:29:04.739Z,101281.70
2019-02-19T20:31:33.313Z,101289.56
2019-02-19T20:34:01.637Z,101292.09
2019-02-19T20:36:29.943Z,101294.83
2019-02-19T20:38:58.254Z,101298.42
2019-02-19T20:41:26.557Z,101308.44
2019-02-19T20:43:54.983Z,101311.54
2019-02-19T20:46:23.286Z,101306.50
2019-02-19T20:48:51.609Z,101302.95
2019-02-19T20:51:19.929Z,101306.50
2019-02-19T20:53:48.232Z,101309.73
2019-02-19T20:56:16.559Z,101310.93
2019-02-19T20:58:44.860Z,101308.89
2019-02-19T21:01:13.191Z,101313.78
2019-02-19T21:03:41.548Z,101311.99
2019-02-19T21:06:10.384Z,101314.50
2019-02-19T21:08:38.823Z,101305.79
2019-02-19T21:11:07.137Z,101306.25
2019-02-19T21:13:35.436Z,101315.67
2019-02-19T21:16:03.779Z,101307.79
2019-02-19T21:18:32.140Z,101313.12
2019-02-19T21:21:00.463Z,101310.51
2019-02-19T21:23:28.768Z,101319.59
2019-02-19T21:25:57.076Z,101313.77
2019-02-19T21:28:25.754Z,101320.67
2019-02-19T21:30:54.509Z,101318.05
2019-02-19T21:33:23.092Z,101323.29
2019-02-19T21:35:52.771Z,101325.91
2019-02-19T21:38:21.181Z,101317.31
2019-02-19T21:40:49.489Z,101316.97
2019-02-19T21:43:17.824Z,101323.62
2019-02-19T21:45:46.112Z,101324.70
2019-02-19T21:48:14.442Z,101327.20
2019-02-19T21:50:43.074Z,101321.71
2019-02-19T21:53:11.384Z,101322.55
2019-02-19T21:55:39.665Z,101323.14
2019-02-19T21:58:07.982Z,101324.92
2019-02-19T22:00:36.283Z,101324.38
2019-02-19T22:03:04.680Z,101324.84
2019-02-19T22:05:32.987Z,101322.33
2019-02-19T22:08:01.309Z,101326.42
2019-02-19T22:10:29.623Z,101331.30
2019-02-19T22:12:57.908Z,101325.34
2019-02-19T22:15:26.217Z,101326.07
2019-02-19T22:17:54.502Z,101322.83
2019-02-19T22:20:27.714Z,101321.42
2019-02-19T22:22:56.012Z,101321.04
2019-02-19T22:25:24.335Z,101319.52
2019-02-19T22:27:52.963Z,101321.64
2019-02-19T22:30:21.266Z,101322.48
2019-02-19T22:32:49.658Z,101327.13
2019-02-19T22:35:17.962Z,101334.39
2019-02-19T22:37:46.569Z,101332.22
2019-02-19T22:40:14.859Z,101331.39
2019-02-19T22:42:43.163Z,101330.56
2019-02-19T22:45:11.534Z,101324.63
2019-02-19T22:47:39.846Z,101325.55
2019-02-19T22:50:09.609Z,101328.55
2019-02-19T22:52:37.928Z,101331.52
2019-02-19T22:55:13.102Z,101336.42
2019-02-19T22:57:41.418Z,101333.16
2019-02-19T23:00:17.071Z,101339.98
2019-02-19T23:02:46.447Z,101333.41
2019-02-19T23:05:14.769Z,101332.89
2019-02-19T23:07:43.078Z,101334.09
2019-02-19T23:10:11.376Z,101336.45
2019-02-19T23:12:39.959Z,101333.83
2019-02-19T23:15:08.263Z,101332.65
2019-02-19T23:17:36.574Z,101326.93
2019-02-19T23:20:06.728Z,101329.45
2019-02-19T23:22:35.310Z,101334.82
2019-02-19T23:25:04.125Z,101343.16
2019-02-19T23:27:32.398Z,101328.16
2019-02-19T23:30:00.701Z,101338.52
2019-02-19T23:32:28.985Z,101343.41
2019-02-19T23:35:15.080Z,101343.16
2019-02-19T23:37:43.438Z,101346.61
2019-02-19T23:40:11.748Z,101339.80
2019-02-19T23:42:40.370Z,101345.85
2019-02-19T23:45:09.453Z,101341.57
2019-02-19T23:47:37.793Z,101347.61
2019-02-19T23:50:07.825Z,101339.50
2019-02-19T23:52:36.140Z,101345.09
2019-02-19T23:55:06.802Z,101344.96
2019-02-19T23:57:35.109Z,101339.11
